createdAt,value
2023-05-07T00:00:27.575Z,77.16
2023-05-07T00:03:31.394Z,75.90
2023-05-07T00:06:36.925Z,76.61
2023-05-07T00:09:41.119Z,77.09
2023-05-07T00:12:44.997Z,75.88
2023-05-07T00:15:48.714Z,76.56
2023-05-07T00:18:52.479Z,76.74
2023-05-07T00:21:58.148Z,76.44
2023-05-07T00:25:01.960Z,76.73
2023-05-07T00:28:05.859Z,77.41
2023-05-07T00:31:09.785Z,75.95
2023-05-07T00:34:13.591Z,75.84
2023-05-07T00:37:19.269Z,78.18
2023-05-07T00:40:23.120Z,75.99
2023-05-07T00:43:26.866Z,74.43
2023-05-07T00:46:31.590Z,75.15
2023-05-07T00:49:42.331Z,76.10
2023-05-07T00:52:47.610Z,75.83
2023-05-07T00:55:51.542Z,76.31
2023-05-07T00:58:55.622Z,76.19
2023-05-07T01:01:59.490Z,77.47
2023-05-07T01:05:04.485Z,78.81
2023-05-07T01:08:10.273Z,78.95
2023-05-07T01:11:14.721Z,78.64
2023-05-07T01:14:18.679Z,80.27
2023-05-07T01:17:22.412Z,78.34
2023-05-07T01:20:27.259Z,77.24
2023-05-07T01:23:36.866Z,77.27
2023-05-07T01:26:41.060Z,78.47
2023-05-07T01:29:45.320Z,78.05
2023-05-07T01:32:54.268Z,77.00
2023-05-07T01:35:59.740Z,75.91
2023-05-07T01:39:05.587Z,75.62
2023-05-07T01:42:09.907Z,76.10
2023-05-07T01:45:13.970Z,75.16
2023-05-07T01:48:18.345Z,74.69
2023-05-07T01:51:23.474Z,75.49
2023-05-07T01:54:30.428Z,76.80
2023-05-07T01:57:35.575Z,76.42
2023-05-07T02:00:39.591Z,75.72
2023-05-07T02:03:44.280Z,77.08
2023-05-07T02:06:56.978Z,75.67
2023-05-07T02:10:02.553Z,75.22
2023-05-07T02:13:06.387Z,75.34
2023-05-07T02:16:10.241Z,76.66
2023-05-07T02:19:15.560Z,74.76
2023-05-07T02:22:19.231Z,74.85
2023-05-07T02:25:24.530Z,74.04
2023-05-07T02:28:28.276Z,74.58
2023-05-07T02:31:36.771Z,76.01
2023-05-07T02:34:40.635Z,76.04
2023-05-07T02:37:44.259Z,75.82
2023-05-07T02:40:49.617Z,75.29
2023-05-07T02:43:53.788Z,75.80
2023-05-07T02:46:57.455Z,76.68
2023-05-07T02:50:02.062Z,75.49
2023-05-07T02:53:07.032Z,76.00
2023-05-07T02:56:12.186Z,75.91
2023-05-07T02:59:15.922Z,75.70
2023-05-07T03:02:20.227Z,77.52
2023-05-07T03:05:24.012Z,76.16
2023-05-07T03:08:27.704Z,76.48
2023-05-07T03:11:32.880Z,76.30
2023-05-07T03:14:36.449Z,74.92
2023-05-07T03:17:40.357Z,74.29
2023-05-07T03:20:44.030Z,73.62
2023-05-07T03:23:47.789Z,73.91
2023-05-07T03:26:52.886Z,74.25
2023-05-07T03:29:57.013Z,75.28
2023-05-07T03:33:01.105Z,75.05
2023-05-07T03:36:05.991Z,74.13
2023-05-07T03:39:09.769Z,73.72
2023-05-07T03:42:18.433Z,74.33
2023-05-07T03:45:25.164Z,74.78
2023-05-07T03:48:37.673Z,75.61
2023-05-07T03:51:42.146Z,76.04
2023-05-07T03:54:45.828Z,75.56
2023-05-07T03:57:54.397Z,75.08
2023-05-07T04:00:58.473Z,74.62
2023-05-07T04:04:05.687Z,74.83
2023-05-07T04:07:11.918Z,74.50
2023-05-07T04:10:19.571Z,73.31
2023-05-07T04:13:27.635Z,73.26
2023-05-07T04:16:32.260Z,73.75
2023-05-07T04:19:36.469Z,75.03
2023-05-07T04:22:40.274Z,75.06
2023-05-07T04:25:44.123Z,73.91
2023-05-07T04:29:01.712Z,73.38
2023-05-07T04:32:10.326Z,72.17
2023-05-07T04:35:17.212Z,71.80
2023-05-07T04:38:21.470Z,72.77
2023-05-07T04:41:27.985Z,71.55
2023-05-07T04:44:33.977Z,70.43
2023-05-07T04:47:37.653Z,69.72
2023-05-07T04:50:41.489Z,69.39
2023-05-07T04:53:47.299Z,68.91
2023-05-07T04:56:51.398Z,68.48
2023-05-07T04:59:57.071Z,66.84
2023-05-07T05:03:01.332Z,68.21
2023-05-07T05:06:06.824Z,67.56
2023-05-07T05:09:12.382Z,66.63
2023-05-07T05:12:17.852Z,66.18
2023-05-07T05:15:23.477Z,66.05
2023-05-07T05:18:27.561Z,65.31
2023-05-07T05:21:31.461Z,65.24
2023-05-07T05:24:41.047Z,64.30
2023-05-07T05:27:45.484Z,63.49
2023-05-07T05:30:51.513Z,63.68
2023-05-07T05:33:56.242Z,62.91
2023-05-07T05:37:01.779Z,62.79
2023-05-07T05:40:06.664Z,61.85
2023-05-07T05:43:10.775Z,61.03
2023-05-07T05:46:17.886Z,60.07
2023-05-07T05:49:21.864Z,59.21
2023-05-07T05:52:26.415Z,59.34
2023-05-07T05:55:33.611Z,58.52
2023-05-07T05:58:37.652Z,58.19
2023-05-07T06:01:45.900Z,56.93
2023-05-07T06:04:49.830Z,57.53
2023-05-07T06:07:56.694Z,56.30
2023-05-07T06:11:01.819Z,55.95
2023-05-07T06:14:09.132Z,54.96
2023-05-07T06:17:14.824Z,54.90
2023-05-07T06:20:19.162Z,55.25
2023-05-07T06:23:23.157Z,54.67
2023-05-07T06:26:27.069Z,55.18
2023-05-07T06:29:32.792Z,54.46
2023-05-07T06:32:39.652Z,54.77
2023-05-07T06:35:43.814Z,55.24
2023-05-07T06:38:47.763Z,53.07
2023-05-07T06:41:52.844Z,54.08
2023-05-07T06:45:04.544Z,53.84
2023-05-07T06:48:10.164Z,52.71
2023-05-07T06:51:23.830Z,52.24
2023-05-07T06:54:28.324Z,52.53
2023-05-07T06:57:32.503Z,51.44
2023-05-07T07:00:36.505Z,49.99
2023-05-07T07:03:41.871Z,51.42
2023-05-07T07:06:45.829Z,49.82
2023-05-07T07:09:52.837Z,49.32
2023-05-07T07:12:57.294Z,50.18
2023-05-07T07:16:02.801Z,49.53
2023-05-07T07:19:08.418Z,50.03
2023-05-07T07:22:13.074Z,50.39
2023-05-07T07:25:16.989Z,50.17
2023-05-07T07:28:23.428Z,48.66
2023-05-07T07:31:27.537Z,49.49
2023-05-07T07:34:32.920Z,50.06
2023-05-07T07:37:38.573Z,49.41
2023-05-07T07:40:42.607Z,50.49
2023-05-07T07:43:49.809Z,49.64
2023-05-07T07:46:56.830Z,48.78
2023-05-07T07:50:04.193Z,48.36
2023-05-07T07:53:08.296Z,48.39
2023-05-07T07:56:12.720Z,47.03
2023-05-07T07:59:20.058Z,46.17
2023-05-07T08:02:26.652Z,47.88
2023-05-07T08:05:32.325Z,46.59
2023-05-07T08:08:37.108Z,46.90
2023-05-07T08:11:41.329Z,46.46
2023-05-07T08:14:45.331Z,46.33
2023-05-07T08:17:49.193Z,46.39
2023-05-07T08:20:55.054Z,44.92
2023-05-07T08:24:02.451Z,45.97
2023-05-07T08:27:06.987Z,46.11
2023-05-07T08:30:12.897Z,45.36
2023-05-07T08:33:17.661Z,43.91
2023-05-07T08:36:23.037Z,45.44
2023-05-07T08:39:27.082Z,44.84
2023-05-07T08:42:33.860Z,45.05
2023-05-07T08:45:38.033Z,44.36
2023-05-07T08:48:42.335Z,42.97
2023-05-07T08:51:53.897Z,43.86
2023-05-07T08:54:58.957Z,43.21
2023-05-07T08:58:03.750Z,42.34
2023-05-07T09:01:11.987Z,42.30
2023-05-07T09:04:16.102Z,42.33
2023-05-07T09:07:24.035Z,42.60
2023-05-07T09:10:28.745Z,41.54
2023-05-07T09:13:32.769Z,40.68
2023-05-07T09:16:38.998Z,40.60
2023-05-07T09:19:42.946Z,39.99
2023-05-07T09:22:48.345Z,41.03
2023-05-07T09:26:03.176Z,40.04
2023-05-07T09:29:10.548Z,39.87
2023-05-07T09:32:14.746Z,38.46
2023-05-07T09:35:19.198Z,37.51
2023-05-07T09:38:30.144Z,38.59
2023-05-07T09:41:45.584Z,37.31
2023-05-07T09:45:02.438Z,37.02
2023-05-07T09:48:14.598Z,36.98
2023-05-07T09:51:24.744Z,37.06
2023-05-07T09:54:31.881Z,36.48
2023-05-07T09:57:37.346Z,36.24
2023-05-07T10:00:45.674Z,36.98
2023-05-07T10:03:54.247Z,36.81
2023-05-07T10:06:59.612Z,37.69
2023-05-07T10:10:07.334Z,37.72
2023-05-07T10:13:16.083Z,38.33
2023-05-07T10:16:25.338Z,37.54
2023-05-07T10:19:30.712Z,37.40
2023-05-07T10:22:41.277Z,37.80
2023-05-07T10:25:46.807Z,37.72
2023-05-07T10:29:03.854Z,37.03
2023-05-07T10:32:30.039Z,36.31
2023-05-07T10:35:38.680Z,36.79
2023-05-07T10:38:43.231Z,36.12
2023-05-07T10:41:50.477Z,35.58
2023-05-07T10:44:55.048Z,36.26
2023-05-07T10:51:28.292Z,35.31
2023-05-07T10:54:40.211Z,34.71
2023-05-07T10:57:49.724Z,34.60
2023-05-07T11:01:00.505Z,34.30
2023-05-07T11:04:16.584Z,34.78
2023-05-07T11:07:35.422Z,34.34
2023-05-07T11:10:55.328Z,34.81
2023-05-07T11:14:45.967Z,34.44
2023-05-07T11:18:10.602Z,33.96
2023-05-07T11:21:35.261Z,34.14
2023-05-07T11:25:02.764Z,34.47
2023-05-07T11:28:11.636Z,33.94
2023-05-07T11:31:27.384Z,34.26
2023-05-07T11:34:32.761Z,34.34
2023-05-07T11:37:37.290Z,33.86
2023-05-07T11:40:52.276Z,34.36
2023-05-07T11:44:01.064Z,34.69
2023-05-07T11:47:06.428Z,35.69
2023-05-07T11:50:12.230Z,35.13
2023-05-07T11:53:15.971Z,35.33
2023-05-07T11:56:21.155Z,34.84
2023-05-07T11:59:24.910Z,35.33
2023-05-07T12:02:31.017Z,35.77
2023-05-07T12:05:34.904Z,34.66
2023-05-07T12:08:40.036Z,33.83
2023-05-07T12:11:48.716Z,33.74
2023-05-07T12:14:52.481Z,33.51
2023-05-07T12:17:57.977Z,33.27
2023-05-07T12:21:02.671Z,34.30
2023-05-07T12:24:07.151Z,35.14
2023-05-07T12:27:12.136Z,35.36
2023-05-07T12:30:16.216Z,35.98
2023-05-07T12:33:26.092Z,35.96
2023-05-07T12:36:39.696Z,34.71
2023-05-07T12:39:47.511Z,34.51
2023-05-07T12:42:57.695Z,34.72
2023-05-07T12:46:05.803Z,34.59
2023-05-07T12:49:11.409Z,34.18
2023-05-07T12:52:15.980Z,34.31
2023-05-07T12:55:20.183Z,33.92
2023-05-07T12:58:28.295Z,34.28
2023-05-07T13:01:32.981Z,34.18
2023-05-07T13:04:38.534Z,33.51
2023-05-07T13:07:43.004Z,33.25
2023-05-07T13:10:46.685Z,33.39
2023-05-07T13:13:50.538Z,35.12
2023-05-07T13:16:54.255Z,34.53
2023-05-07T13:19:59.342Z,34.57
2023-05-07T13:23:05.515Z,34.07
2023-05-07T13:26:22.480Z,33.89
2023-05-07T13:29:31.582Z,34.02
2023-05-07T13:32:35.462Z,33.24
2023-05-07T13:35:41.085Z,32.84
2023-05-07T13:38:44.973Z,33.05
2023-05-07T13:41:48.709Z,33.31
2023-05-07T13:44:52.591Z,33.47
2023-05-07T13:47:57.809Z,32.44
2023-05-07T13:51:03.017Z,32.82
2023-05-07T13:54:06.952Z,32.84
2023-05-07T13:57:10.817Z,32.77
2023-05-07T14:00:15.723Z,32.70
2023-05-07T14:03:21.024Z,32.44
2023-05-07T14:06:26.400Z,33.39
2023-05-07T14:09:30.210Z,33.03
2023-05-07T14:12:34.436Z,33.49
2023-05-07T14:15:38.726Z,33.23
2023-05-07T14:18:42.507Z,33.00
2023-05-07T14:21:47.718Z,33.13
2023-05-07T14:25:05.403Z,33.41
2023-05-07T14:28:16.043Z,32.68
2023-05-07T14:31:19.851Z,32.22
2023-05-07T14:34:23.777Z,32.56
2023-05-07T14:37:29.505Z,32.62
2023-05-07T14:40:33.458Z,32.58
2023-05-07T14:43:37.205Z,32.65
2023-05-07T14:46:41.128Z,32.58
2023-05-07T14:49:44.807Z,32.93
2023-05-07T14:52:50.068Z,33.12
2023-05-07T14:55:53.926Z,33.10
2023-05-07T14:58:57.746Z,32.84
2023-05-07T15:02:03.783Z,32.84
2023-05-07T15:05:10.204Z,33.10
2023-05-07T15:08:15.616Z,33.36
2023-05-07T15:11:19.476Z,33.16
2023-05-07T15:14:23.644Z,33.03
2023-05-07T15:17:27.610Z,34.09
2023-05-07T15:20:31.612Z,34.34
2023-05-07T15:23:36.953Z,33.96
2023-05-07T15:26:40.472Z,34.09
2023-05-07T15:29:44.339Z,33.55
2023-05-07T15:32:48.715Z,33.65
2023-05-07T15:35:52.563Z,34.10
2023-05-07T15:38:57.771Z,34.57
2023-05-07T15:42:02.511Z,34.72
2023-05-07T15:45:07.285Z,33.41
2023-05-07T15:48:12.019Z,34.25
2023-05-07T15:51:15.881Z,34.17
2023-05-07T15:54:21.432Z,34.60
2023-05-07T15:57:25.556Z,34.67
2023-05-07T16:00:29.689Z,34.81
2023-05-07T16:03:34.407Z,34.89
2023-05-07T16:06:38.283Z,35.05
2023-05-07T16:09:43.381Z,35.99
2023-05-07T16:12:47.183Z,35.70
2023-05-07T16:15:50.995Z,35.39
2023-05-07T16:18:54.804Z,35.96
2023-05-07T16:21:58.879Z,36.43
2023-05-07T16:25:05.522Z,36.25
2023-05-07T16:28:09.328Z,36.57
2023-05-07T16:31:13.231Z,36.89
2023-05-07T16:34:17.009Z,36.50
2023-05-07T16:37:21.722Z,36.85
2023-05-07T16:40:27.349Z,37.17
2023-05-07T16:43:31.207Z,37.64
2023-05-07T16:46:35.033Z,37.98
2023-05-07T16:49:38.891Z,38.21
2023-05-07T16:52:42.667Z,38.17
2023-05-07T16:55:47.981Z,38.17
2023-05-07T16:58:51.813Z,38.48
2023-05-07T17:01:56.939Z,38.98
2023-05-07T17:05:01.570Z,39.03
2023-05-07T17:08:05.699Z,39.30
2023-05-07T17:11:10.977Z,39.67
2023-05-07T17:14:14.771Z,39.22
2023-05-07T17:17:18.761Z,39.98
2023-05-07T17:20:23.918Z,40.28
2023-05-07T17:23:27.821Z,39.97
2023-05-07T17:26:35.504Z,40.19
2023-05-07T17:29:39.303Z,40.08
2023-05-07T17:32:43.010Z,40.75
2023-05-07T17:35:46.823Z,41.00
2023-05-07T17:38:50.592Z,41.23
2023-05-07T17:41:55.860Z,41.00
2023-05-07T17:44:59.721Z,41.16
2023-05-07T17:48:03.907Z,41.54
2023-05-07T17:51:07.829Z,41.44
2023-05-07T17:54:11.854Z,41.25
2023-05-07T17:57:17.093Z,41.54
2023-05-07T18:00:21.178Z,41.75
2023-05-07T18:03:25.794Z,41.62
2023-05-07T18:06:29.632Z,41.78
2023-05-07T18:09:33.443Z,41.84
2023-05-07T18:12:38.687Z,42.24
2023-05-07T18:15:42.569Z,42.90
2023-05-07T18:18:47.190Z,42.89
2023-05-07T18:21:51.185Z,43.40
2023-05-07T18:24:56.188Z,43.27
2023-05-07T18:28:01.430Z,43.63
2023-05-07T18:31:06.311Z,43.83
2023-05-07T18:34:10.572Z,43.80
2023-05-07T18:37:14.298Z,44.15
2023-05-07T18:40:18.416Z,43.93
2023-05-07T18:43:23.600Z,44.02
2023-05-07T18:46:29.521Z,44.72
2023-05-07T18:49:33.350Z,44.43
2023-05-07T18:52:37.445Z,45.35
2023-05-07T18:55:41.581Z,45.08
2023-05-07T18:58:46.769Z,45.31
2023-05-07T19:01:50.684Z,45.53
2023-05-07T19:04:54.567Z,45.51
2023-05-07T19:07:58.449Z,45.58
2023-05-07T19:11:02.313Z,45.33
2023-05-07T19:14:07.619Z,45.40
2023-05-07T19:17:13.348Z,45.76
2023-05-07T19:20:17.125Z,45.68
2023-05-07T19:23:21.235Z,45.56
2023-05-07T19:26:25.241Z,45.50
2023-05-07T19:29:30.452Z,46.23
2023-05-07T19:32:34.292Z,46.25
2023-05-07T19:35:38.404Z,46.22
2023-05-07T19:38:42.132Z,46.66
2023-05-07T19:41:46.186Z,46.74
2023-05-07T19:44:51.517Z,47.45
2023-05-07T19:47:55.229Z,48.01
2023-05-07T19:51:00.168Z,48.19
2023-05-07T19:54:04.180Z,48.40
2023-05-07T19:57:08.022Z,48.84
2023-05-07T20:00:15.016Z,49.48
2023-05-07T20:03:19.516Z,50.58
2023-05-07T20:06:24.274Z,50.94
2023-05-07T20:09:28.024Z,51.45
2023-05-07T20:12:31.784Z,51.77
2023-05-07T20:15:38.100Z,52.13
2023-05-07T20:18:42.085Z,52.26
2023-05-07T20:21:46.187Z,52.71
2023-05-07T20:24:49.934Z,53.21
2023-05-07T20:27:53.956Z,53.56
2023-05-07T20:30:59.188Z,53.91
2023-05-07T20:34:03.271Z,53.70
2023-05-07T20:37:07.030Z,53.71
2023-05-07T20:40:11.878Z,54.54
2023-05-07T20:43:15.903Z,54.77
2023-05-07T20:46:23.394Z,54.85
2023-05-07T20:49:27.442Z,54.87
2023-05-07T20:52:31.229Z,55.14
2023-05-07T20:55:35.058Z,55.20
2023-05-07T20:58:38.814Z,55.32
2023-05-07T21:01:44.160Z,55.69
2023-05-07T21:04:48.040Z,55.52
2023-05-07T21:07:51.847Z,55.42
2023-05-07T21:10:55.998Z,55.13
2023-05-07T21:13:59.878Z,55.52
2023-05-07T21:17:07.352Z,55.72
2023-05-07T21:20:11.877Z,55.26
2023-05-07T21:23:15.877Z,54.93
2023-05-07T21:26:20.526Z,55.91
2023-05-07T21:29:24.953Z,55.12
2023-05-07T21:32:30.196Z,55.66
2023-05-07T21:35:34.026Z,55.95
2023-05-07T21:38:38.778Z,55.83
2023-05-07T21:41:42.593Z,56.12
2023-05-07T21:44:46.525Z,56.19
2023-05-07T21:47:51.787Z,56.38
2023-05-07T21:51:02.345Z,55.82
2023-05-07T21:54:07.065Z,57.01
2023-05-07T21:57:11.215Z,57.37
2023-05-07T22:00:16.592Z,58.16
2023-05-07T22:03:21.986Z,57.82
2023-05-07T22:06:26.563Z,57.32
2023-05-07T22:09:30.356Z,56.49
2023-05-07T22:12:34.161Z,56.74
2023-05-07T22:15:49.138Z,56.18
2023-05-07T22:19:01.694Z,55.31
2023-05-07T22:22:05.579Z,55.46
2023-05-07T22:25:10.844Z,55.44
2023-05-07T22:28:14.573Z,54.45
2023-05-07T22:31:18.401Z,54.79
2023-05-07T22:34:23.754Z,55.31
2023-05-07T22:37:27.726Z,55.09
2023-05-07T22:40:31.492Z,55.71
2023-05-07T22:43:35.493Z,56.09
2023-05-07T22:46:39.299Z,56.33
2023-05-07T22:49:44.381Z,56.61
2023-05-07T22:52:48.011Z,56.67
2023-05-07T22:55:51.859Z,56.01
2023-05-07T22:58:55.577Z,55.84
2023-05-07T23:01:59.674Z,55.14
2023-05-07T23:05:05.049Z,55.34
2023-05-07T23:08:08.914Z,54.95
2023-05-07T23:11:13.075Z,55.48
2023-05-07T23:14:16.850Z,54.56
2023-05-07T23:17:20.702Z,53.87
2023-05-07T23:20:25.903Z,53.50
2023-05-07T23:23:33.926Z,53.85
2023-05-07T23:26:37.760Z,54.19
2023-05-07T23:29:41.477Z,54.39
2023-05-07T23:32:45.151Z,54.52
2023-05-07T23:35:50.292Z,54.33
2023-05-07T23:38:53.942Z,54.45
2023-05-07T23:41:57.596Z,54.40
2023-05-07T23:45:01.452Z,54.09
2023-05-07T23:48:05.320Z,54.36
2023-05-07T23:51:10.616Z,54.12
2023-05-07T23:54:14.303Z,53.60
2023-05-07T23:57:17.979Z,54.06
